Time;durP1;ratioP1;P1;durP2;ratioP2;P2;SDS_P1;SDS_P2;PMS_P1;PMS_P2;Temp;Humidity;BMP_temperature;BMP_pressure;BME280_temperature;BME280_humidity;BME280_pressure;Samples;Min_cycle;Max_cycle;Signal;HPM_P1;HPM_P2
2023/05/04 00:02:21;;;;;;;12.68;6.55;;;7.60;99.90;;;;;;5085861;28;20036;-79
2023/05/04 00:04:50;;;;;;;15.77;6.32;;;7.60;99.90;;;;;;5053545;28;20114;-78
2023/05/04 00:07:16;;;;;;;9.15;5.93;;;7.60;99.90;;;;;;5069924;28;20052;-80
2023/05/04 00:09:41;;;;;;;7.65;5.45;;;7.70;99.90;;;;;;5053180;28;20404;-76
2023/05/04 00:12:07;;;;;;;10.60;7.53;;;7.70;99.90;;;;;;5102255;28;20067;-79
2023/05/04 00:14:33;;;;;;;9.98;6.78;;;7.60;99.90;;;;;;5071275;28;20029;-76
2023/05/04 00:16:58;;;;;;;11.43;6.68;;;7.60;99.90;;;;;;5073637;28;20376;-79
2023/05/04 00:19:24;;;;;;;13.00;6.75;;;7.60;99.90;;;;;;5055509;28;20040;-79
2023/05/04 00:21:50;;;;;;;11.07;7.45;;;7.60;99.90;;;;;;5083715;28;20412;-78
2023/05/04 00:24:16;;;;;;;9.25;6.15;;;8.10;99.90;;;;;;5090737;28;20052;-78
2023/05/04 00:26:41;;;;;;;11.10;7.15;;;7.50;99.90;;;;;;5085657;28;20047;-78
2023/05/04 00:29:07;;;;;;;12.27;7.03;;;7.50;99.90;;;;;;5073938;28;20051;-80
2023/05/04 00:31:32;;;;;;;13.00;6.20;;;7.60;99.90;;;;;;5066532;28;20043;-81
2023/05/04 00:33:58;;;;;;;10.63;6.75;;;7.50;99.90;;;;;;5038806;28;20052;-81
2023/05/04 00:36:24;;;;;;;10.05;5.63;;;7.70;99.90;;;;;;5072336;28;20040;-79
2023/05/04 00:38:54;;;;;;;12.88;6.85;;;7.50;99.90;;;;;;5054913;28;20043;-81
2023/05/04 00:41:21;;;;;;;11.52;6.65;;;7.60;99.90;;;;;;5068898;28;20094;-77
2023/05/04 00:43:47;;;;;;;9.43;5.57;;;7.60;99.90;;;;;;5093447;28;20476;-79
2023/05/04 00:46:13;;;;;;;15.05;7.28;;;7.60;99.90;;;;;;5073201;28;20040;-78
2023/05/04 00:48:47;;;;;;;11.90;6.93;;;7.60;99.90;;;;;;5072628;28;20036;-80
2023/05/04 00:51:15;;;;;;;12.13;6.88;;;7.40;99.90;;;;;;5072636;28;20040;-77
2023/05/04 00:53:41;;;;;;;10.82;6.45;;;7.50;99.90;;;;;;5088562;28;20698;-78
2023/05/04 00:56:07;;;;;;;12.75;7.15;;;7.40;99.90;;;;;;5072030;28;20040;-76
2023/05/04 00:58:34;;;;;;;11.18;6.97;;;7.40;99.90;;;;;;5071595;28;20039;-80
2023/05/04 01:01:01;;;;;;;14.55;7.45;;;7.30;99.90;;;;;;5087926;28;20124;-77
2023/05/04 01:03:27;;;;;;;10.48;7.65;;;7.30;99.90;;;;;;5084786;28;20051;-78
2023/05/04 01:06:03;;;;;;;15.32;8.30;;;7.20;99.90;;;;;;5089310;28;20043;-79
2023/05/04 01:08:32;;;;;;;11.82;7.25;;;7.20;99.90;;;;;;5087234;28;20044;-78
2023/05/04 01:11:18;;;;;;;12.73;7.22;;;7.20;99.90;;;;;;5069075;28;20485;-80
2023/05/04 01:13:45;;;;;;;10.73;6.70;;;7.00;99.90;;;;;;5088782;28;20472;-79
2023/05/04 01:16:12;;;;;;;12.02;6.55;;;7.50;99.90;;;;;;5071438;28;20082;-79
2023/05/04 01:18:37;;;;;;;11.10;6.45;;;7.10;99.90;;;;;;5086572;28;20044;-77
2023/05/04 01:21:03;;;;;;;16.02;6.63;;;7.10;99.90;;;;;;5069185;28;20047;-77
2023/05/04 01:23:29;;;;;;;13.30;6.53;;;7.00;99.90;;;;;;5060908;28;20162;-81
2023/05/04 01:26:21;;;;;;;11.23;6.45;;;7.00;99.90;;;;;;5086726;28;20089;-78
2023/05/04 01:29:13;;;;;;;31.10;8.05;;;7.10;99.90;;;;;;5089190;28;20148;-80
2023/05/04 01:31:39;;;;;;;10.70;5.88;;;6.90;99.90;;;;;;5068527;28;20091;-82
2023/05/04 01:34:07;;;;;;;9.50;6.40;;;7.10;99.90;;;;;;5072125;28;20051;-79
2023/05/04 01:36:34;;;;;;;11.00;7.32;;;7.10;99.90;;;;;;5060594;28;20051;-77
2023/05/04 01:39:00;;;;;;;12.30;6.75;;;6.90;99.90;;;;;;5104494;28;20052;-81
2023/05/04 01:41:26;;;;;;;11.35;6.60;;;6.90;99.90;;;;;;5071189;28;20106;-78
2023/05/04 01:43:53;;;;;;;11.70;7.30;;;7.40;99.90;;;;;;5072939;28;20448;-80
2023/05/04 01:46:19;;;;;;;15.48;7.53;;;7.00;99.90;;;;;;5072799;28;20071;-79
2023/05/04 01:48:44;;;;;;;14.88;7.55;;;7.10;99.90;;;;;;5072359;28;20083;-81
2023/05/04 01:51:10;;;;;;;11.45;7.35;;;7.10;99.90;;;;;;5049651;28;20036;-79
2023/05/04 01:53:36;;;;;;;14.23;7.20;;;7.00;99.90;;;;;;5039308;28;20038;-79
2023/05/04 01:56:02;;;;;;;11.10;7.03;;;7.10;99.90;;;;;;5085747;28;20040;-77
2023/05/04 01:58:27;;;;;;;10.40;6.65;;;7.00;99.90;;;;;;5088856;28;20101;-78
2023/05/04 02:00:53;;;;;;;10.43;5.70;;;7.00;99.90;;;;;;5053660;28;20071;-81
2023/05/04 02:03:19;;;;;;;9.35;6.82;;;7.20;99.90;;;;;;5053270;28;20123;-80
2023/05/04 02:05:45;;;;;;;10.63;6.53;;;7.00;99.90;;;;;;5058439;28;20074;-80
2023/05/04 02:08:11;;;;;;;11.85;6.63;;;7.00;99.90;;;;;;5088771;28;20074;-80
2023/05/04 02:10:37;;;;;;;11.43;6.32;;;7.10;99.90;;;;;;5054704;28;20036;-82
2023/05/04 02:13:02;;;;;;;10.85;5.25;;;7.20;99.90;;;;;;5085098;28;20044;-81
2023/05/04 02:15:28;;;;;;;8.85;5.68;;;7.10;99.90;;;;;;5070448;28;20042;-79
2023/05/04 02:17:54;;;;;;;11.75;5.70;;;7.30;99.90;;;;;;5051639;28;20052;-77
2023/05/04 02:20:19;;;;;;;10.13;6.05;;;7.20;99.90;;;;;;5054537;28;20469;-78
2023/05/04 02:22:45;;;;;;;8.02;5.47;;;7.10;99.90;;;;;;5068206;28;20063;-81
2023/05/04 02:25:11;;;;;;;8.82;5.22;;;7.30;99.90;;;;;;5052734;28;20043;-80
2023/05/04 02:27:36;;;;;;;8.35;5.38;;;7.30;99.90;;;;;;5070541;28;20089;-77
2023/05/04 02:30:03;;;;;;;10.68;5.45;;;7.10;99.90;;;;;;5070485;28;20138;-80
2023/05/04 02:32:29;;;;;;;8.90;5.40;;;7.20;99.90;;;;;;5085589;28;20373;-80
2023/05/04 02:34:55;;;;;;;9.55;6.30;;;7.20;99.90;;;;;;5088196;28;20396;-79
2023/05/04 02:37:21;;;;;;;10.10;5.90;;;6.80;99.90;;;;;;5054767;28;20040;-79
2023/05/04 02:39:46;;;;;;;9.48;6.20;;;7.10;99.90;;;;;;5048216;28;20633;-78
2023/05/04 02:42:12;;;;;;;8.85;6.25;;;7.10;99.90;;;;;;5031654;28;20045;-78
2023/05/04 02:44:38;;;;;;;9.38;5.88;;;7.30;99.90;;;;;;5069712;28;20047;-79
2023/05/04 02:47:05;;;;;;;8.73;6.20;;;7.20;99.90;;;;;;5085850;28;20043;-77
2023/05/04 02:49:30;;;;;;;10.63;5.55;;;7.10;99.90;;;;;;5067336;28;20051;-76
2023/05/04 02:51:56;;;;;;;7.28;5.57;;;7.30;99.90;;;;;;5055244;28;20400;-79
2023/05/04 02:54:22;;;;;;;11.10;5.75;;;7.30;99.90;;;;;;5050123;28;20055;-79
2023/05/04 02:56:47;;;;;;;8.75;6.25;;;7.10;99.90;;;;;;5070025;28;20051;-80
2023/05/04 02:59:13;;;;;;;12.85;6.60;;;7.20;99.90;;;;;;5084540;28;20040;-78
2023/05/04 03:01:39;;;;;;;14.00;6.72;;;7.10;99.90;;;;;;5086339;28;20119;-80
2023/05/04 03:04:06;;;;;;;13.13;6.20;;;7.10;99.90;;;;;;5082300;28;20047;-78
2023/05/04 03:06:32;;;;;;;9.05;5.97;;;7.30;99.90;;;;;;5086543;28;20115;-78
2023/05/04 03:08:58;;;;;;;11.27;6.13;;;7.30;99.90;;;;;;5070722;28;20555;-78
2023/05/04 03:11:24;;;;;;;12.93;6.03;;;7.20;99.90;;;;;;5069577;28;20034;-79
2023/05/04 03:13:49;;;;;;;8.95;6.30;;;7.10;99.90;;;;;;5070627;28;20123;-77
2023/05/04 03:16:16;;;;;;;10.63;6.18;;;7.10;99.90;;;;;;5070287;28;20044;-80
2023/05/04 03:18:42;;;;;;;8.65;6.13;;;7.10;99.90;;;;;;5087479;28;20146;-79
2023/05/04 03:21:07;;;;;;;10.43;5.82;;;7.20;99.90;;;;;;5067385;28;20049;-79
2023/05/04 03:23:33;;;;;;;12.52;5.70;;;7.40;99.90;;;;;;5036862;28;20071;-79
2023/05/04 03:25:59;;;;;;;8.25;5.55;;;7.40;99.90;;;;;;5067449;28;20036;-78
2023/05/04 03:28:25;;;;;;;10.40;5.45;;;7.40;99.90;;;;;;5070959;28;20089;-77
2023/05/04 03:30:50;;;;;;;9.23;5.15;;;7.60;99.90;;;;;;5050906;28;20144;-80
2023/05/04 03:33:16;;;;;;;9.00;5.70;;;7.40;99.90;;;;;;5070683;28;20056;-78
2023/05/04 03:35:42;;;;;;;9.98;6.15;;;7.40;99.90;;;;;;5099429;28;20466;-78
2023/05/04 03:38:08;;;;;;;9.75;5.80;;;7.40;99.90;;;;;;5072016;28;20035;-79
2023/05/04 03:40:34;;;;;;;8.23;5.43;;;7.50;99.90;;;;;;5107988;28;20467;-78
2023/05/04 03:43:00;;;;;;;11.20;5.40;;;7.60;99.90;;;;;;5073264;28;20039;-78
2023/05/04 03:45:27;;;;;;;8.57;5.30;;;7.70;99.90;;;;;;5105694;28;20073;-81
2023/05/04 03:47:56;;;;;;;10.85;5.28;;;7.50;99.90;;;;;;5088418;28;20071;-80
2023/05/04 03:50:21;;;;;;;8.45;5.40;;;7.50;99.90;;;;;;5081118;28;20036;-77
2023/05/04 03:52:48;;;;;;;7.97;5.03;;;7.70;99.90;;;;;;5082211;28;20399;-76
2023/05/04 03:55:14;;;;;;;8.82;5.32;;;7.60;99.90;;;;;;5088590;28;20077;-78
2023/05/04 03:57:40;;;;;;;14.15;5.60;;;7.80;99.90;;;;;;5061354;28;20040;-80
2023/05/04 04:00:07;;;;;;;10.23;4.93;;;7.80;99.90;;;;;;5075108;28;20055;-82
2023/05/04 04:02:33;;;;;;;8.90;5.45;;;7.90;99.90;;;;;;5092134;28;20091;-78
2023/05/04 04:04:59;;;;;;;9.13;5.75;;;7.90;99.90;;;;;;5110441;27;20039;-78
2023/05/04 04:07:25;;;;;;;10.55;5.72;;;7.80;99.90;;;;;;5091485;28;20036;-77
2023/05/04 04:09:51;;;;;;;10.55;5.35;;;7.70;99.90;;;;;;5092927;28;20066;-76
2023/05/04 04:12:19;;;;;;;9.25;5.57;;;7.90;99.90;;;;;;5102471;28;20076;-75
2023/05/04 04:14:47;;;;;;;8.13;5.15;;;7.90;99.90;;;;;;5092196;28;20040;-81
2023/05/04 04:17:12;;;;;;;9.38;5.28;;;7.80;99.90;;;;;;5071581;28;20495;-78
2023/05/04 04:19:38;;;;;;;7.90;4.80;;;8.10;99.90;;;;;;5085386;28;20135;-80
2023/05/04 04:22:04;;;;;;;7.45;5.10;;;7.90;99.90;;;;;;5071427;28;20051;-76
2023/05/04 04:24:30;;;;;;;6.50;4.70;;;8.10;99.90;;;;;;5106551;28;20164;-76
2023/05/04 04:26:56;;;;;;;9.50;5.30;;;7.90;99.90;;;;;;5112066;27;20051;-79
2023/05/04 04:29:22;;;;;;;10.88;5.03;;;8.10;99.90;;;;;;5077462;28;20032;-79
2023/05/04 04:31:48;;;;;;;8.45;5.00;;;8.20;99.90;;;;;;5070960;28;20115;-79
2023/05/04 04:34:13;;;;;;;11.45;5.10;;;8.10;99.90;;;;;;5072067;28;20084;-80
2023/05/04 04:36:39;;;;;;;8.95;4.85;;;8.00;99.90;;;;;;5097132;28;20048;-78
2023/05/04 04:39:05;;;;;;;10.75;5.15;;;8.30;99.90;;;;;;5112125;27;20071;-77
2023/05/04 04:41:31;;;;;;;10.15;4.85;;;8.20;99.90;;;;;;5100112;28;20648;-78
2023/05/04 04:43:57;;;;;;;9.00;5.28;;;8.20;99.90;;;;;;5116926;27;20047;-78
2023/05/04 04:46:22;;;;;;;9.10;4.93;;;8.10;99.90;;;;;;5093358;28;20067;-83
2023/05/04 04:48:49;;;;;;;10.05;5.28;;;8.30;99.90;;;;;;5073349;28;20370;-80
2023/05/04 04:51:14;;;;;;;11.60;5.57;;;8.20;99.90;;;;;;5090642;28;20054;-78
2023/05/04 04:53:40;;;;;;;12.48;5.53;;;8.30;99.90;;;;;;5076018;27;20122;-80
2023/05/04 04:56:06;;;;;;;9.55;5.60;;;8.40;99.90;;;;;;5075065;28;20047;-78
2023/05/04 04:58:32;;;;;;;9.55;5.05;;;8.20;99.90;;;;;;5074736;28;20063;-81
2023/05/04 05:00:59;;;;;;;9.73;5.95;;;8.30;99.90;;;;;;5105649;28;20063;-78
2023/05/04 05:03:24;;;;;;;12.07;6.07;;;8.40;99.90;;;;;;5065458;28;20036;-78
2023/05/04 05:05:50;;;;;;;9.73;5.50;;;8.60;99.90;;;;;;5055420;28;20089;-76
2023/05/04 05:08:16;;;;;;;11.40;5.63;;;8.60;99.90;;;;;;5091393;28;20617;-77
2023/05/04 05:10:42;;;;;;;12.20;5.43;;;8.40;99.90;;;;;;5092801;28;20047;-79
2023/05/04 05:13:08;;;;;;;10.73;5.68;;;8.50;99.90;;;;;;5093775;28;20035;-77
2023/05/04 05:15:34;;;;;;;11.18;5.78;;;8.50;99.90;;;;;;5092966;28;20092;-82
2023/05/04 05:18:00;;;;;;;10.57;5.80;;;8.80;99.90;;;;;;5072938;28;20123;-78
2023/05/04 05:20:26;;;;;;;8.98;4.75;;;8.70;99.90;;;;;;5090887;28;20046;-80
2023/05/04 05:22:52;;;;;;;9.98;5.40;;;8.90;99.90;;;;;;5056459;28;20040;-78
2023/05/04 05:25:18;;;;;;;10.05;5.30;;;9.00;99.90;;;;;;5089588;28;20127;-79
2023/05/04 05:27:44;;;;;;;7.80;5.20;;;9.00;99.90;;;;;;5057356;28;20077;-76
2023/05/04 05:30:10;;;;;;;8.98;5.20;;;9.00;99.90;;;;;;5101548;28;20032;-78
2023/05/04 05:32:36;;;;;;;9.27;5.60;;;8.90;99.90;;;;;;5071344;28;20047;-81
2023/05/04 05:35:03;;;;;;;9.07;5.75;;;9.00;99.90;;;;;;5083350;28;20054;-78
2023/05/04 05:37:30;;;;;;;11.68;5.47;;;9.10;99.90;;;;;;5109251;28;20047;-78
2023/05/04 05:39:56;;;;;;;12.32;6.35;;;8.90;99.90;;;;;;5080926;28;20058;-77
2023/05/04 05:42:21;;;;;;;12.70;5.50;;;9.20;99.90;;;;;;5072432;28;20035;-77
2023/05/04 05:44:47;;;;;;;11.63;5.50;;;9.00;99.90;;;;;;5071635;28;20547;-78
2023/05/04 05:47:13;;;;;;;9.00;5.63;;;9.30;99.90;;;;;;5079579;28;20395;-77
2023/05/04 05:49:40;;;;;;;11.07;6.15;;;9.10;99.90;;;;;;5094357;28;20060;-77
2023/05/04 05:52:06;;;;;;;7.95;5.50;;;9.30;99.90;;;;;;5074851;27;20100;-80
2023/05/04 05:54:33;;;;;;;8.60;5.57;;;9.20;99.90;;;;;;5109552;28;20036;-79
2023/05/04 05:56:59;;;;;;;14.57;6.65;;;9.20;99.90;;;;;;5091470;28;20040;-75
2023/05/04 05:59:28;;;;;;;9.52;5.85;;;9.30;99.90;;;;;;5071417;28;20678;-81
2023/05/04 06:01:55;;;;;;;11.05;5.90;;;9.50;99.90;;;;;;5106099;28;20082;-81
2023/05/04 06:04:20;;;;;;;6.55;4.93;;;9.50;99.90;;;;;;5075629;28;20035;-76
2023/05/04 06:06:47;;;;;;;9.88;5.32;;;9.70;99.90;;;;;;5077359;28;20046;-76
2023/05/04 06:09:12;;;;;;;11.30;6.20;;;9.60;99.90;;;;;;5070619;28;20096;-75
2023/05/04 06:11:38;;;;;;;12.25;5.40;;;9.60;99.90;;;;;;5104962;28;20035;-76
2023/05/04 06:14:04;;;;;;;9.57;5.47;;;9.80;99.90;;;;;;5056888;28;20039;-76
2023/05/04 06:16:30;;;;;;;11.07;6.05;;;9.70;99.90;;;;;;5074286;28;20040;-75
2023/05/04 06:18:55;;;;;;;9.27;5.72;;;9.70;99.90;;;;;;5090854;28;20050;-77
2023/05/04 06:21:21;;;;;;;9.95;5.32;;;9.90;99.90;;;;;;5098278;28;20149;-78
2023/05/04 06:23:47;;;;;;;12.98;5.53;;;9.90;99.90;;;;;;5070808;28;20071;-77
2023/05/04 06:26:12;;;;;;;11.52;6.63;;;9.90;99.90;;;;;;5071681;28;20040;-79
2023/05/04 06:28:38;;;;;;;10.63;5.82;;;10.00;99.90;;;;;;5088345;28;20051;-78
2023/05/04 06:31:04;;;;;;;10.13;4.90;;;10.30;99.90;;;;;;5089036;28;20142;-78
2023/05/04 06:33:29;;;;;;;8.63;5.70;;;10.20;99.90;;;;;;5101191;28;20043;-79
2023/05/04 06:35:55;;;;;;;8.57;5.47;;;10.40;99.90;;;;;;5090357;28;20130;-79
2023/05/04 06:38:21;;;;;;;11.95;5.53;;;10.40;99.90;;;;;;5090196;27;20044;-79
2023/05/04 06:40:47;;;;;;;13.07;5.72;;;10.60;99.90;;;;;;5055600;28;20050;-81
2023/05/04 06:43:13;;;;;;;7.57;5.13;;;10.50;99.90;;;;;;5072210;28;20066;-77
2023/05/04 06:45:38;;;;;;;9.50;4.82;;;10.70;99.90;;;;;;5090634;28;20078;-78
2023/05/04 06:48:04;;;;;;;8.77;5.35;;;10.90;99.90;;;;;;5103529;28;20073;-81
2023/05/04 06:50:32;;;;;;;9.18;4.72;;;10.70;99.90;;;;;;5086626;28;20036;-79
2023/05/04 06:53:09;;;;;;;7.85;4.93;;;10.80;99.90;;;;;;5085039;28;20035;-77
2023/05/04 06:55:38;;;;;;;6.10;4.15;;;11.10;99.90;;;;;;5070635;28;20063;-79
2023/05/04 06:58:04;;;;;;;9.18;4.93;;;11.10;99.90;;;;;;5063819;27;20043;-81
2023/05/04 07:00:30;;;;;;;11.63;4.70;;;11.20;99.90;;;;;;5092131;28;20039;-83
2023/05/04 07:02:56;;;;;;;8.45;4.30;;;11.00;99.90;;;;;;5089795;28;20163;-81
2023/05/04 07:05:22;;;;;;;11.05;5.53;;;11.30;99.90;;;;;;5073059;28;20486;-79
2023/05/04 07:07:49;;;;;;;6.88;4.03;;;11.20;99.90;;;;;;5077782;28;20070;-82
2023/05/04 07:10:15;;;;;;;9.98;6.45;;;11.30;99.90;;;;;;5071369;28;20031;-70
2023/05/04 07:12:42;;;;;;;11.68;5.78;;;11.30;99.90;;;;;;5069915;28;20059;-77
2023/05/04 07:15:14;;;;;;;8.65;4.65;;;11.50;99.90;;;;;;5057933;28;20085;-78
2023/05/04 07:17:39;;;;;;;9.65;5.22;;;11.50;99.90;;;;;;5052155;28;20039;-77
2023/05/04 07:20:05;;;;;;;7.55;5.20;;;11.60;99.90;;;;;;5089507;28;20043;-78
2023/05/04 07:22:32;;;;;;;10.65;5.25;;;11.80;99.90;;;;;;5100054;28;20040;-76
2023/05/04 07:24:58;;;;;;;7.50;5.00;;;12.10;99.90;;;;;;5107568;28;20047;-82
2023/05/04 07:27:24;;;;;;;6.88;4.35;;;12.20;99.90;;;;;;5069972;28;20036;-80
2023/05/04 07:29:49;;;;;;;6.40;4.10;;;12.20;99.90;;;;;;5106499;28;20039;-80
2023/05/04 07:32:16;;;;;;;7.32;4.95;;;12.00;99.90;;;;;;5058693;28;20027;-79
2023/05/04 07:34:43;;;;;;;9.25;4.57;;;11.90;99.90;;;;;;5076934;28;20425;-82
2023/05/04 07:37:09;;;;;;;10.75;4.72;;;11.80;99.90;;;;;;5052434;28;20130;-79
2023/05/04 07:39:36;;;;;;;7.28;4.57;;;11.80;99.90;;;;;;5122303;27;20694;-80
2023/05/04 07:42:02;;;;;;;10.25;5.35;;;11.80;99.90;;;;;;5077320;28;20046;-81
2023/05/04 07:44:30;;;;;;;15.18;5.78;;;12.10;99.90;;;;;;5075020;28;20055;-79
2023/05/04 07:46:58;;;;;;;8.63;5.93;;;12.00;99.90;;;;;;5076473;28;20586;-79
2023/05/04 07:49:24;;;;;;;10.77;5.82;;;12.10;99.90;;;;;;5075392;28;20063;-79
2023/05/04 07:51:50;;;;;;;9.45;5.68;;;12.10;99.90;;;;;;5077175;28;20036;-78
2023/05/04 07:54:16;;;;;;;8.70;5.47;;;12.30;99.90;;;;;;5055515;28;20058;-78
2023/05/04 07:56:42;;;;;;;10.85;5.25;;;12.30;99.90;;;;;;5057391;28;20376;-79
2023/05/04 07:59:08;;;;;;;8.32;5.22;;;12.70;99.90;;;;;;5039915;28;20035;-81
2023/05/04 08:01:41;;;;;;;7.40;5.15;;;12.60;99.90;;;;;;5073817;28;20454;-82
2023/05/04 08:04:11;;;;;;;6.95;4.90;;;12.80;99.90;;;;;;5066004;27;20495;-79
2023/05/04 08:06:38;;;;;;;9.35;6.10;;;12.70;99.90;;;;;;5062975;28;20491;-77
2023/05/04 08:09:07;;;;;;;8.63;5.68;;;12.80;99.90;;;;;;5067973;28;20705;-82
2023/05/04 08:11:33;;;;;;;8.38;5.45;;;13.10;99.90;;;;;;5053292;28;20070;-78
2023/05/04 08:14:00;;;;;;;9.38;5.40;;;13.30;99.90;;;;;;5106193;28;20480;-79
2023/05/04 08:16:27;;;;;;;10.07;5.32;;;13.30;99.90;;;;;;5058204;28;20035;-80
2023/05/04 08:18:53;;;;;;;8.63;5.43;;;13.40;99.90;;;;;;5092206;28;20040;-79
2023/05/04 08:21:18;;;;;;;13.68;5.93;;;13.50;99.90;;;;;;5076927;28;20047;-77
2023/05/04 08:23:44;;;;;;;9.18;5.30;;;13.40;99.90;;;;;;5111282;28;20131;-80
2023/05/04 08:26:10;;;;;;;8.82;5.35;;;13.60;99.90;;;;;;5092020;28;20043;-80
2023/05/04 08:28:44;;;;;;;7.90;4.88;;;13.80;99.90;;;;;;5103856;27;20043;-79
2023/05/04 08:31:11;;;;;;;12.70;5.68;;;13.90;99.90;;;;;;5059497;28;20142;-80
2023/05/04 08:33:37;;;;;;;7.90;4.72;;;14.10;99.90;;;;;;5072160;28;20048;-78
2023/05/04 08:36:04;;;;;;;7.85;4.82;;;14.30;99.90;;;;;;5071128;28;20725;-79
2023/05/04 08:38:30;;;;;;;8.18;4.82;;;14.30;99.90;;;;;;5072647;28;20085;-81
2023/05/04 08:40:56;;;;;;;8.23;4.65;;;14.40;99.90;;;;;;5053129;28;20036;-80
2023/05/04 08:43:22;;;;;;;7.53;5.32;;;14.60;99.90;;;;;;5091255;28;20043;-79
2023/05/04 08:45:49;;;;;;;6.35;4.82;;;14.70;99.90;;;;;;5071852;28;20042;-79
2023/05/04 08:48:15;;;;;;;6.78;3.88;;;14.80;99.90;;;;;;5069583;28;20036;-80
2023/05/04 08:50:41;;;;;;;8.55;4.68;;;14.70;99.90;;;;;;5087656;28;20036;-80
2023/05/04 08:53:17;;;;;;;7.57;4.47;;;14.80;99.90;;;;;;5071297;28;20694;-80
2023/05/04 08:55:48;;;;;;;10.10;5.13;;;14.90;99.90;;;;;;5089574;28;20431;-80
2023/05/04 08:58:17;;;;;;;5.95;4.60;;;15.10;99.90;;;;;;5066730;28;20043;-80
2023/05/04 09:00:47;;;;;;;10.73;5.55;;;15.30;99.90;;;;;;5070063;28;20040;-80
2023/05/04 09:03:16;;;;;;;6.95;4.88;;;15.30;99.90;;;;;;5056086;28;20073;-80
2023/05/04 09:05:45;;;;;;;11.68;5.38;;;14.80;99.90;;;;;;5071297;28;20048;-80
2023/05/04 09:08:11;;;;;;;7.68;4.75;;;15.50;99.90;;;;;;5071990;28;20090;-81
2023/05/04 09:10:36;;;;;;;8.80;4.85;;;15.60;99.90;;;;;;5072819;28;20032;-81
2023/05/04 09:13:13;;;;;;;8.75;4.65;;;15.90;99.90;;;;;;5068868;28;20039;-81
2023/05/04 09:15:41;;;;;;;7.40;4.85;;;16.10;99.90;;;;;;5069903;28;20114;-80
2023/05/04 09:18:11;;;;;;;10.57;4.85;;;16.60;99.90;;;;;;5070060;28;20124;-81
2023/05/04 09:20:47;;;;;;;10.88;5.10;;;16.40;99.90;;;;;;5072766;28;20036;-80
2023/05/04 09:23:13;;;;;;;8.20;4.38;;;16.40;99.90;;;;;;5067436;28;20047;-81
2023/05/04 09:25:47;;;;;;;5.85;4.22;;;16.70;99.90;;;;;;5068920;28;20771;-82
2023/05/04 09:28:17;;;;;;;8.05;4.40;;;17.00;27.20;;;;;;5083098;28;20040;-81
2023/05/04 09:30:43;;;;;;;7.95;5.68;;;15.80;22.00;;;;;;5084109;28;20602;-80
2023/05/04 09:33:15;;;;;;;8.70;4.95;;;17.30;44.10;;;;;;5122522;27;20486;-84
2023/05/04 09:35:44;;;;;;;5.97;4.18;;;17.20;52.60;;;;;;5075850;28;20085;-80
2023/05/04 09:38:10;;;;;;;6.03;4.53;;;17.20;1.00;;;;;;5059950;28;20077;-80
2023/05/04 09:40:40;;;;;;;6.10;4.15;;;17.40;22.90;;;;;;5071929;28;20051;-81
2023/05/04 09:43:09;;;;;;;7.53;4.40;;;17.40;6.30;;;;;;5068155;28;20125;-80
2023/05/04 09:45:40;;;;;;;7.50;4.20;;;17.80;1.00;;;;;;5076709;28;20140;-79
2023/05/04 09:48:36;;;;;;;8.25;4.30;;;18.10;1.00;;;;;;5073740;28;20035;-82
2023/05/04 09:51:14;;;;;;;7.05;4.22;;;18.10;1.00;;;;;;5092176;28;20051;-80
2023/05/04 09:54:07;;;;;;;9.43;4.82;;;18.40;1.00;;;;;;5100767;28;20052;-81
2023/05/04 09:56:48;;;;;;;3.40;2.80;;;18.30;1.00;;;;;;5010568;28;20060;-81
2023/05/04 09:59:16;;;;;;;9.70;4.03;;;18.50;1.00;;;;;;5074879;28;20699;-80
2023/05/04 10:01:43;;;;;;;7.68;4.35;;;18.50;1.00;;;;;;5115728;27;20075;-79
2023/05/04 10:04:09;;;;;;;7.53;4.03;;;18.60;1.00;;;;;;5076668;28;20039;-79
2023/05/04 10:06:35;;;;;;;5.78;3.72;;;17.50;1.00;;;;;;5073693;28;20081;-79
2023/05/04 10:09:02;;;;;;;3.65;3.03;;;18.40;1.00;;;;;;5092205;28;20054;-78
2023/05/04 10:11:29;;;;;;;6.40;4.07;;;18.30;1.00;;;;;;5090382;28;20425;-78
2023/05/04 10:13:56;;;;;;;7.40;3.60;;;18.70;1.00;;;;;;5069698;28;20097;-80
2023/05/04 10:16:37;;;;;;;6.28;4.15;;;18.70;1.00;;;;;;5074564;28;20111;-80
2023/05/04 10:19:34;;;;;;;5.25;3.28;;;18.90;1.00;;;;;;5071352;28;20043;-79
2023/05/04 10:22:39;;;;;;;7.20;4.32;;;18.70;1.00;;;;;;5069970;28;20042;-78
2023/05/04 10:25:31;;;;;;;12.27;3.72;;;18.80;1.00;;;;;;5090204;28;20056;-81
2023/05/04 10:28:44;;;;;;;5.80;3.67;;;19.10;1.00;;;;;;5070570;28;20043;-80
2023/05/04 10:31:13;;;;;;;6.68;3.80;;;19.30;1.00;;;;;;5059376;28;20043;-78
2023/05/04 10:33:39;;;;;;;5.70;3.90;;;19.20;1.00;;;;;;5047386;28;20108;-81
2023/05/04 10:36:07;;;;;;;4.18;2.92;;;19.00;1.00;;;;;;5074833;28;20044;-78
2023/05/04 10:38:37;;;;;;;5.95;3.78;;;19.20;1.00;;;;;;5107730;28;20054;-81
2023/05/04 10:41:16;;;;;;;6.30;4.40;;;18.90;1.00;;;;;;5074126;28;20143;-79
2023/05/04 10:44:05;;;;;;;7.47;3.95;;;18.90;1.00;;;;;;5088738;28;20406;-80
2023/05/04 10:46:40;;;;;;;4.63;3.33;;;19.00;1.00;;;;;;5077669;28;20079;-81
2023/05/04 10:49:47;;;;;;;7.15;4.00;;;18.80;1.00;;;;;;5094034;28;20040;-83
2023/05/04 10:52:19;;;;;;;6.22;4.03;;;18.70;1.00;;;;;;5100662;28;20477;-82
2023/05/04 10:54:45;;;;;;;8.60;4.20;;;19.70;1.00;;;;;;5109583;27;20062;-80
2023/05/04 10:57:16;;;;;;;5.10;3.72;;;19.80;1.00;;;;;;5106199;28;20098;-83
2023/05/04 10:59:53;;;;;;;5.38;4.20;;;19.10;1.00;;;;;;5125610;27;20040;-81
2023/05/04 11:02:40;;;;;;;8.07;4.00;;;20.00;1.00;;;;;;5124808;27;20039;-82
2023/05/04 11:05:14;;;;;;;5.82;3.72;;;19.90;1.00;;;;;;5079571;28;20053;-83
2023/05/04 11:07:40;;;;;;;6.97;4.50;;;20.10;1.00;;;;;;5026833;28;20053;-81
2023/05/04 11:10:19;;;;;;;7.38;4.63;;;20.30;1.00;;;;;;5037536;28;20059;-81
2023/05/04 11:12:44;;;;;;;8.73;4.80;;;20.40;99.90;;;;;;5031375;28;20047;-82
2023/05/04 11:15:12;;;;;;;6.63;3.80;;;20.40;99.90;;;;;;5020410;28;20041;-81
2023/05/04 11:17:50;;;;;;;5.35;3.80;;;20.50;99.90;;;;;;5020312;28;20040;-81
2023/05/04 11:20:23;;;;;;;8.30;3.92;;;20.80;99.90;;;;;;5054886;28;20095;-81
2023/05/04 11:22:52;;;;;;;5.22;3.08;;;20.20;99.90;;;;;;5036253;28;20071;-81
2023/05/04 11:25:30;;;;;;;5.90;4.05;;;20.00;99.90;;;;;;5020850;28;20131;-81
2023/05/04 11:28:01;;;;;;;5.38;3.63;;;20.10;99.90;;;;;;5065457;28;20048;-82
2023/05/04 11:30:39;;;;;;;6.63;3.92;;;20.10;99.90;;;;;;5044525;28;20131;-80
2023/05/04 11:33:13;;;;;;;6.47;3.85;;;20.50;99.90;;;;;;5033193;28;20442;-80
2023/05/04 11:35:40;;;;;;;4.45;4.05;;;20.80;99.90;;;;;;5065266;28;20036;-81
2023/05/04 11:38:07;;;;;;;7.53;4.55;;;20.60;99.90;;;;;;5075116;28;20040;-80
2023/05/04 11:40:36;;;;;;;4.25;3.30;;;20.60;99.90;;;;;;5105045;28;20047;-81
2023/05/04 11:43:03;;;;;;;5.15;3.30;;;20.90;99.90;;;;;;5095149;28;20085;-81
2023/05/04 11:45:34;;;;;;;7.75;4.00;;;21.10;99.90;;;;;;5088209;28;20438;-80
2023/05/04 11:48:01;;;;;;;5.43;4.30;;;20.60;99.90;;;;;;5110539;28;20047;-80
2023/05/04 11:50:28;;;;;;;3.88;3.15;;;20.90;99.90;;;;;;5094407;28;20062;-80
2023/05/04 11:53:08;;;;;;;5.32;3.75;;;20.60;99.90;;;;;;5092039;28;20512;-80
2023/05/04 11:55:34;;;;;;;5.50;3.63;;;20.80;99.90;;;;;;5116282;27;20057;-80
2023/05/04 11:58:06;;;;;;;5.47;3.70;;;20.80;99.90;;;;;;5086762;28;20047;-81
2023/05/04 12:00:40;;;;;;;3.45;3.15;;;20.80;99.90;;;;;;5111117;27;20032;-80
2023/05/04 12:03:08;;;;;;;5.57;3.63;;;20.80;99.90;;;;;;5110356;27;20035;-80
2023/05/04 12:05:35;;;;;;;4.88;4.18;;;20.20;99.90;;;;;;5073285;28;20430;-80
2023/05/04 12:08:02;;;;;;;6.93;4.43;;;20.60;99.90;;;;;;5093038;27;20491;-79
2023/05/04 12:10:33;;;;;;;6.82;4.38;;;20.60;99.90;;;;;;5059255;28;20035;-79
2023/05/04 12:13:01;;;;;;;4.38;3.85;;;20.60;99.90;;;;;;5081750;28;20048;-79
2023/05/04 12:15:28;;;;;;;7.32;4.40;;;20.80;99.90;;;;;;5059980;28;20032;-79
2023/05/04 12:17:58;;;;;;;6.68;4.13;;;20.70;99.90;;;;;;5059820;28;20043;-79
2023/05/04 12:20:27;;;;;;;4.85;3.97;;;20.50;99.90;;;;;;5074985;28;20040;-80
2023/05/04 12:22:54;;;;;;;9.00;4.53;;;20.70;99.90;;;;;;5061515;28;20127;-79
2023/05/04 12:25:19;;;;;;;8.45;4.70;;;21.10;99.90;;;;;;5064934;28;20047;-79
2023/05/04 12:27:45;;;;;;;5.25;4.30;;;21.20;99.90;;;;;;5076748;28;20035;-77
2023/05/04 12:30:12;;;;;;;6.43;4.20;;;21.20;99.90;;;;;;5076924;28;20058;-79
2023/05/04 12:32:37;;;;;;;5.70;4.07;;;21.20;99.90;;;;;;5091009;28;20440;-77
2023/05/04 12:35:04;;;;;;;7.20;4.05;;;21.20;99.90;;;;;;5094372;28;20079;-79
2023/05/04 12:37:30;;;;;;;5.93;3.42;;;21.20;99.90;;;;;;5096697;27;20422;-78
2023/05/04 12:39:56;;;;;;;8.60;4.78;;;21.10;99.90;;;;;;5084717;28;20085;-78
2023/05/04 12:42:22;;;;;;;5.97;4.05;;;21.40;99.90;;;;;;5086437;28;20039;-80
2023/05/04 12:44:48;;;;;;;5.70;4.28;;;21.30;99.90;;;;;;5088590;28;20040;-79
2023/05/04 12:47:14;;;;;;;5.45;4.15;;;21.30;99.90;;;;;;5098603;28;20032;-80
2023/05/04 12:49:39;;;;;;;6.47;4.07;;;21.30;99.90;;;;;;5058127;28;20036;-78
2023/05/04 12:52:05;;;;;;;6.13;3.65;;;21.40;99.90;;;;;;5069125;28;20027;-80
2023/05/04 12:54:31;;;;;;;6.38;3.40;;;21.50;99.90;;;;;;5090183;28;20411;-80
2023/05/04 12:56:57;;;;;;;6.88;4.05;;;21.80;99.90;;;;;;5082146;28;20126;-79